createdAt,value
2022-11-14T00:00:01.886Z,5.90
2022-11-14T00:02:28.585Z,5.90
2022-11-14T00:04:55.238Z,5.80
2022-11-14T00:07:21.803Z,5.80
2022-11-14T00:09:48.405Z,5.80
2022-11-14T00:12:15.058Z,5.70
2022-11-14T00:14:41.568Z,5.80
2022-11-14T00:17:08.729Z,5.90
2022-11-14T00:19:35.404Z,5.90
2022-11-14T00:22:01.923Z,6.00
2022-11-14T00:24:28.607Z,6.10
2022-11-14T00:26:55.115Z,6.10
2022-11-14T00:29:21.655Z,6.20
2022-11-14T00:31:48.213Z,6.20
2022-11-14T00:34:14.839Z,6.30
2022-11-14T00:36:41.443Z,6.30
2022-11-14T00:39:10.615Z,6.20
2022-11-14T00:41:37.179Z,6.20
2022-11-14T00:44:03.823Z,6.20
2022-11-14T00:46:30.367Z,6.20
2022-11-14T00:48:56.875Z,6.00
2022-11-14T00:51:23.451Z,6.00
2022-11-14T00:53:49.963Z,5.90
2022-11-14T00:56:16.481Z,5.90
2022-11-14T00:58:43.135Z,5.80
2022-11-14T01:01:09.814Z,5.90
2022-11-14T01:03:36.482Z,5.90
2022-11-14T01:06:04.600Z,5.80
2022-11-14T01:08:31.518Z,5.80
2022-11-14T01:10:59.046Z,5.70
2022-11-14T01:13:26.051Z,5.70
2022-11-14T01:15:52.654Z,5.60
2022-11-14T01:18:19.914Z,5.60
2022-11-14T01:20:47.599Z,5.50
2022-11-14T01:23:15.198Z,5.40
2022-11-14T01:25:42.178Z,5.40
2022-11-14T01:28:09.649Z,5.40
2022-11-14T01:30:36.629Z,5.30
2022-11-14T01:33:03.571Z,5.20
2022-11-14T01:35:30.877Z,5.10
2022-11-14T01:37:57.391Z,5.10
2022-11-14T01:40:23.926Z,5.00
2022-11-14T01:43:09.021Z,5.00
2022-11-14T01:45:47.849Z,4.90
2022-11-14T01:48:20.163Z,4.80
2022-11-14T01:50:49.818Z,4.80
2022-11-14T01:53:16.597Z,4.80
2022-11-14T01:55:43.307Z,4.80
2022-11-14T01:58:10.172Z,4.70
2022-11-14T02:00:37.071Z,4.60
2022-11-14T02:03:03.941Z,4.60
2022-11-14T02:05:30.810Z,4.60
2022-11-14T02:07:57.495Z,4.50
2022-11-14T02:10:24.017Z,4.40
2022-11-14T02:12:51.375Z,4.40
2022-11-14T02:15:18.423Z,4.40
2022-11-14T02:17:45.008Z,4.30
2022-11-14T02:20:11.660Z,4.30
2022-11-14T02:22:39.331Z,4.20
2022-11-14T02:25:06.530Z,4.20
2022-11-14T02:27:33.882Z,4.10
2022-11-14T02:30:07.662Z,4.10
2022-11-14T02:32:57.121Z,4.10
2022-11-14T02:35:20.719Z,4.10
2022-11-14T02:37:47.320Z,4.00
2022-11-14T02:40:13.839Z,4.00
2022-11-14T02:42:40.338Z,4.00
2022-11-14T02:45:07.244Z,4.00
2022-11-14T02:51:02.067Z,3.90
2022-11-14T02:53:28.711Z,3.90
2022-11-14T02:55:55.517Z,3.90
2022-11-14T02:58:22.074Z,3.90
2022-11-14T03:01:18.427Z,3.80
2022-11-14T03:03:35.123Z,3.80
2022-11-14T03:06:02.193Z,3.80
2022-11-14T03:08:29.092Z,3.80
2022-11-14T03:10:56.312Z,3.80
2022-11-14T03:13:22.884Z,3.70
2022-11-14T03:15:49.386Z,3.70
2022-11-14T03:18:15.927Z,3.90
2022-11-14T03:20:42.448Z,3.90
2022-11-14T03:23:08.966Z,4.00
2022-11-14T03:25:35.578Z,4.00
2022-11-14T03:28:02.111Z,4.00
2022-11-14T03:30:28.629Z,4.00
2022-11-14T03:32:56.056Z,4.00
2022-11-14T03:35:22.868Z,4.00
2022-11-14T03:37:52.719Z,4.00
2022-11-14T03:40:21.708Z,4.10
2022-11-14T03:42:48.202Z,4.40
2022-11-14T03:45:14.752Z,4.50
2022-11-14T03:47:41.276Z,4.60
2022-11-14T03:50:08.018Z,4.70
2022-11-14T03:52:34.565Z,4.70
2022-11-14T03:55:01.090Z,4.70
2022-11-14T03:57:27.638Z,4.70
2022-11-14T03:59:54.152Z,4.90
2022-11-14T04:02:20.689Z,5.00
2022-11-14T04:04:47.211Z,4.90
2022-11-14T04:07:14.133Z,4.90
2022-11-14T04:09:40.733Z,5.00
2022-11-14T04:12:10.161Z,5.00
2022-11-14T04:14:40.919Z,5.10
2022-11-14T04:17:07.456Z,5.10
2022-11-14T04:19:34.111Z,5.10
2022-11-14T04:22:00.781Z,5.10
2022-11-14T04:24:27.302Z,5.20
2022-11-14T04:26:53.826Z,5.30
2022-11-14T04:29:20.474Z,5.20
2022-11-14T04:31:46.979Z,5.20
2022-11-14T04:34:13.507Z,5.50
2022-11-14T04:36:40.334Z,5.40
2022-11-14T04:39:06.842Z,5.40
2022-11-14T04:41:33.409Z,5.30
2022-11-14T04:43:59.953Z,5.30
2022-11-14T04:46:26.459Z,5.20
2022-11-14T04:48:53.307Z,5.10
2022-11-14T04:51:19.849Z,5.10
2022-11-14T04:53:46.373Z,5.10
2022-11-14T04:56:13.293Z,5.10
2022-11-14T04:58:40.013Z,5.30
2022-11-14T05:01:10.183Z,5.40
2022-11-14T05:03:36.690Z,5.50
2022-11-14T05:06:03.551Z,5.60
2022-11-14T05:08:30.700Z,5.60
2022-11-14T05:10:57.423Z,5.60
2022-11-14T05:13:23.950Z,5.50
2022-11-14T05:15:50.471Z,5.50
2022-11-14T05:18:17.055Z,5.60
2022-11-14T05:20:44.014Z,5.60
2022-11-14T05:23:18.431Z,5.60
2022-11-14T05:25:45.023Z,5.60
2022-11-14T05:28:11.548Z,5.60
2022-11-14T05:30:38.096Z,5.60
2022-11-14T05:33:04.751Z,5.60
2022-11-14T05:35:31.314Z,5.60
2022-11-14T05:38:00.391Z,5.60
2022-11-14T05:40:27.009Z,5.60
2022-11-14T05:42:56.796Z,5.60
2022-11-14T05:45:23.372Z,5.50
2022-11-14T05:47:51.724Z,5.50
2022-11-14T05:50:18.239Z,5.50
2022-11-14T05:52:44.772Z,5.50
2022-11-14T05:55:11.357Z,5.50
2022-11-14T05:57:37.968Z,5.50
2022-11-14T06:00:05.207Z,5.60
2022-11-14T06:02:31.823Z,5.60
2022-11-14T06:04:58.370Z,5.70
2022-11-14T06:07:24.936Z,5.90
2022-11-14T06:09:51.591Z,6.00
2022-11-14T06:12:18.118Z,6.10
2022-11-14T06:14:44.678Z,6.20
2022-11-14T06:17:11.214Z,6.20
2022-11-14T06:19:37.851Z,6.30
2022-11-14T06:22:04.408Z,6.30
2022-11-14T06:24:33.500Z,6.40
2022-11-14T06:27:00.075Z,6.30
2022-11-14T06:29:30.126Z,6.40
2022-11-14T06:31:59.258Z,6.50
2022-11-14T06:34:25.903Z,6.60
2022-11-14T06:36:52.412Z,6.50
2022-11-14T06:39:19.046Z,6.40
2022-11-14T06:41:45.576Z,6.40
2022-11-14T06:44:12.168Z,6.40
2022-11-14T06:46:38.690Z,6.30
2022-11-14T06:49:05.228Z,6.40
2022-11-14T06:51:31.766Z,6.40
2022-11-14T06:53:58.671Z,6.40
2022-11-14T06:56:25.168Z,6.50
2022-11-14T06:58:52.082Z,6.40
2022-11-14T07:01:22.747Z,6.40
2022-11-14T07:03:49.468Z,6.40
2022-11-14T07:06:17.900Z,6.40
2022-11-14T07:08:44.430Z,6.40
2022-11-14T07:11:12.670Z,6.40
2022-11-14T07:13:39.181Z,6.50
2022-11-14T07:16:05.825Z,6.50
2022-11-14T07:18:33.168Z,6.60
2022-11-14T07:21:00.980Z,6.70
2022-11-14T07:23:27.959Z,6.70
2022-11-14T07:25:54.472Z,6.70
2022-11-14T07:28:21.140Z,6.70
2022-11-14T07:30:47.715Z,6.70
2022-11-14T07:33:14.272Z,6.80
2022-11-14T07:35:40.823Z,6.80
2022-11-14T07:38:07.507Z,6.90
2022-11-14T07:40:34.053Z,6.90
2022-11-14T07:43:01.091Z,6.90
2022-11-14T07:45:28.867Z,7.00
2022-11-14T07:47:59.554Z,7.10
2022-11-14T07:50:27.301Z,7.00
2022-11-14T07:52:54.808Z,7.00
2022-11-14T07:55:21.449Z,7.00
2022-11-14T07:57:49.603Z,7.10
2022-11-14T08:00:16.921Z,7.00
2022-11-14T08:02:43.615Z,7.20
2022-11-14T08:05:10.136Z,7.20
2022-11-14T08:07:36.661Z,7.20
2022-11-14T08:10:03.428Z,7.20
2022-11-14T08:12:29.956Z,7.20
2022-11-14T08:14:56.542Z,7.20
2022-11-14T08:17:23.907Z,7.20
2022-11-14T08:19:50.479Z,7.20
2022-11-14T08:22:16.998Z,7.20
2022-11-14T08:24:43.553Z,7.20
2022-11-14T08:27:10.069Z,7.30
2022-11-14T08:29:36.602Z,7.30
2022-11-14T08:32:03.161Z,7.40
2022-11-14T08:34:30.287Z,7.40
2022-11-14T08:36:57.823Z,7.30
2022-11-14T08:39:24.396Z,7.40
2022-11-14T08:41:50.949Z,7.50
2022-11-14T08:44:17.512Z,7.70
2022-11-14T08:46:44.066Z,7.70
2022-11-14T08:49:10.579Z,7.80
2022-11-14T08:51:37.105Z,7.80
2022-11-14T08:54:03.829Z,7.90
2022-11-14T08:56:30.394Z,7.90
2022-11-14T08:58:57.014Z,7.90
2022-11-14T09:01:23.524Z,7.80
2022-11-14T09:03:52.250Z,7.80
2022-11-14T09:06:22.144Z,7.70
2022-11-14T09:08:48.664Z,7.70
2022-11-14T09:11:19.121Z,7.70
2022-11-14T09:13:46.373Z,7.70
2022-11-14T09:16:12.957Z,7.60
2022-11-14T09:18:39.518Z,7.70
2022-11-14T09:21:07.673Z,7.70
2022-11-14T09:23:34.860Z,7.80
2022-11-14T09:26:08.201Z,7.90
2022-11-14T09:28:35.058Z,7.90
2022-11-14T09:31:06.568Z,7.90
2022-11-14T09:33:33.459Z,8.00
2022-11-14T09:36:01.200Z,8.10
2022-11-14T09:38:27.787Z,8.20
2022-11-14T09:41:00.452Z,8.30
2022-11-14T09:43:39.096Z,8.20
2022-11-14T09:46:16.109Z,8.20
2022-11-14T09:48:43.188Z,8.30
2022-11-14T09:51:14.778Z,8.30
2022-11-14T09:53:59.537Z,8.30
2022-11-14T09:56:26.370Z,8.30
2022-11-14T09:58:54.986Z,8.20
2022-11-14T10:01:36.557Z,8.30
2022-11-14T10:04:09.692Z,8.20
2022-11-14T10:06:42.554Z,8.20
2022-11-14T10:09:28.895Z,8.20
2022-11-14T10:12:04.991Z,8.20
2022-11-14T10:14:55.790Z,8.30
2022-11-14T10:17:49.717Z,8.30
2022-11-14T10:20:26.876Z,8.40
2022-11-14T10:23:10.804Z,8.40
2022-11-14T10:25:43.986Z,8.40
2022-11-14T10:28:20.482Z,8.40
2022-11-14T10:30:56.221Z,8.50
2022-11-14T10:33:42.845Z,8.50
2022-11-14T10:36:20.564Z,8.60
2022-11-14T10:39:04.070Z,8.70
2022-11-14T10:44:20.814Z,8.80
2022-11-14T10:46:49.730Z,8.90
2022-11-14T10:49:19.320Z,8.90
2022-11-14T10:51:53.991Z,9.00
2022-11-14T10:54:39.355Z,9.00
2022-11-14T10:57:14.399Z,9.10
2022-11-14T10:59:42.978Z,9.20
2022-11-14T11:02:09.927Z,9.20
2022-11-14T11:04:37.385Z,9.20
2022-11-14T11:07:06.894Z,9.30
2022-11-14T11:09:53.551Z,9.30
2022-11-14T11:12:21.727Z,9.30
2022-11-14T11:14:50.464Z,9.30
2022-11-14T11:17:20.536Z,9.30
2022-11-14T11:19:48.489Z,9.40
2022-11-14T11:22:24.117Z,9.40
2022-11-14T11:24:50.644Z,9.50
2022-11-14T11:27:24.875Z,9.50
2022-11-14T11:30:06.503Z,9.60
2022-11-14T11:32:33.061Z,9.70
2022-11-14T11:35:01.044Z,9.80
2022-11-14T11:37:30.759Z,9.80
2022-11-14T11:40:01.338Z,9.90
2022-11-14T11:42:58.683Z,10.00
2022-11-14T11:45:17.557Z,10.10
2022-11-14T11:47:54.484Z,10.10
2022-11-14T11:50:22.074Z,10.20
2022-11-14T11:52:57.292Z,10.10
2022-11-14T11:55:29.475Z,10.10
2022-11-14T11:58:04.961Z,10.10
2022-11-14T12:00:31.948Z,10.10
2022-11-14T12:02:59.225Z,10.10
2022-11-14T12:05:44.703Z,10.10
2022-11-14T12:08:21.370Z,10.00
2022-11-14T12:10:49.168Z,10.00
2022-11-14T12:13:22.188Z,10.00
2022-11-14T12:16:01.834Z,10.10
2022-11-14T12:18:39.164Z,10.10
2022-11-14T12:21:09.928Z,10.10
2022-11-14T12:23:55.495Z,10.10
2022-11-14T12:26:25.034Z,10.10
2022-11-14T12:28:59.269Z,10.20
2022-11-14T12:31:27.495Z,10.20
2022-11-14T12:33:57.513Z,10.30
2022-11-14T12:36:31.542Z,10.30
2022-11-14T12:38:58.445Z,10.40
2022-11-14T12:41:26.789Z,10.40
2022-11-14T12:43:53.625Z,10.40
2022-11-14T12:46:20.289Z,10.50
2022-11-14T12:48:47.182Z,10.50
2022-11-14T12:51:25.900Z,10.50
2022-11-14T12:53:53.354Z,10.50
2022-11-14T12:56:24.345Z,10.50
2022-11-14T12:58:56.900Z,10.50
2022-11-14T13:01:26.567Z,10.50
2022-11-14T13:03:53.088Z,10.50
2022-11-14T13:06:22.895Z,10.50
2022-11-14T13:08:56.988Z,10.50
2022-11-14T13:11:53.208Z,10.60
2022-11-14T13:14:39.155Z,10.60
2022-11-14T13:17:36.626Z,10.50
2022-11-14T13:20:41.381Z,10.60
2022-11-14T13:23:26.110Z,10.60
2022-11-14T13:26:11.085Z,10.60
2022-11-14T13:28:37.684Z,10.50
2022-11-14T13:31:16.557Z,10.50
2022-11-14T13:33:49.629Z,10.40
2022-11-14T13:36:16.115Z,10.30
2022-11-14T13:39:15.187Z,10.30
2022-11-14T13:41:53.223Z,10.30
2022-11-14T13:44:34.981Z,10.30
2022-11-14T13:47:07.541Z,10.30
2022-11-14T13:49:56.502Z,10.20
2022-11-14T13:52:25.960Z,10.10
2022-11-14T13:54:52.626Z,10.00
2022-11-14T13:57:37.634Z,10.00
2022-11-14T14:00:22.308Z,10.00
2022-11-14T14:02:55.264Z,9.90
2022-11-14T14:05:32.231Z,9.90
2022-11-14T14:08:05.049Z,9.80
2022-11-14T14:10:31.534Z,9.70
2022-11-14T14:13:10.291Z,9.70
2022-11-14T14:15:41.388Z,9.60
2022-11-14T14:18:28.608Z,9.70
2022-11-14T14:21:19.063Z,9.70
2022-11-14T14:23:54.746Z,9.90
2022-11-14T14:26:30.459Z,9.90
2022-11-14T14:29:15.434Z,10.00
2022-11-14T14:31:42.371Z,10.00
2022-11-14T14:34:22.106Z,10.00
2022-11-14T14:36:50.192Z,9.90
2022-11-14T14:39:25.208Z,9.80
2022-11-14T14:41:52.613Z,9.70
2022-11-14T14:44:28.372Z,9.70
2022-11-14T14:46:55.065Z,9.70
2022-11-14T14:49:23.559Z,9.60
2022-11-14T14:51:54.416Z,9.70
2022-11-14T14:54:25.240Z,9.70
2022-11-14T14:56:52.559Z,9.60
2022-11-14T14:59:21.088Z,9.60
2022-11-14T15:01:47.878Z,9.60
2022-11-14T15:04:15.473Z,9.60
2022-11-14T15:06:44.835Z,9.50
2022-11-14T15:09:17.371Z,9.40
2022-11-14T15:11:46.164Z,9.30
2022-11-14T15:14:13.862Z,9.10
2022-11-14T15:16:40.450Z,9.10
2022-11-14T15:19:12.420Z,9.00
2022-11-14T15:21:40.528Z,8.90
2022-11-14T15:24:13.259Z,8.80
2022-11-14T15:26:39.916Z,8.70
2022-11-14T15:29:07.974Z,8.60
2022-11-14T15:31:34.969Z,8.50
2022-11-14T15:34:06.535Z,8.40
2022-11-14T15:36:33.225Z,8.40
2022-11-14T15:39:01.248Z,8.30
2022-11-14T15:41:28.336Z,8.30
2022-11-14T15:43:57.491Z,8.20
2022-11-14T15:46:26.366Z,8.20
2022-11-14T15:48:52.957Z,8.30
2022-11-14T15:51:37.308Z,8.30
2022-11-14T15:54:03.886Z,8.20
2022-11-14T15:56:30.632Z,8.00
2022-11-14T15:58:57.327Z,7.90
2022-11-14T16:01:26.052Z,7.80
2022-11-14T16:03:52.879Z,7.70
2022-11-14T16:06:19.401Z,7.60
2022-11-14T16:08:46.151Z,7.50
2022-11-14T16:11:13.387Z,7.40
2022-11-14T16:13:40.014Z,7.30
2022-11-14T16:16:06.674Z,7.30
2022-11-14T16:18:33.184Z,7.20
2022-11-14T16:20:59.814Z,7.20
2022-11-14T16:23:26.335Z,7.20
2022-11-14T16:25:52.873Z,7.20
2022-11-14T16:28:19.398Z,7.10
2022-11-14T16:30:45.954Z,7.00
2022-11-14T16:33:12.463Z,6.90
2022-11-14T16:35:39.056Z,6.90
2022-11-14T16:38:05.557Z,7.00
2022-11-14T16:40:32.104Z,7.10
2022-11-14T16:42:59.432Z,7.20
2022-11-14T16:45:26.633Z,7.30
2022-11-14T16:47:53.265Z,7.40
2022-11-14T16:50:19.890Z,7.30
2022-11-14T16:52:46.446Z,7.40
2022-11-14T16:55:13.060Z,7.30
2022-11-14T16:57:40.365Z,7.40
2022-11-14T17:00:08.601Z,7.50
2022-11-14T17:02:35.126Z,7.50
2022-11-14T17:05:01.635Z,7.50
2022-11-14T17:07:32.548Z,7.50
2022-11-14T17:10:00.386Z,7.60
2022-11-14T17:12:27.300Z,7.60
2022-11-14T17:14:54.694Z,7.40
2022-11-14T17:17:21.370Z,7.50
2022-11-14T17:19:47.908Z,7.60
2022-11-14T17:22:15.256Z,7.60
2022-11-14T17:24:42.073Z,7.60
2022-11-14T17:27:09.223Z,7.60
2022-11-14T17:29:35.860Z,7.60
2022-11-14T17:32:04.085Z,7.60
2022-11-14T17:34:31.018Z,7.60
2022-11-14T17:36:57.563Z,7.50
2022-11-14T17:39:24.251Z,7.40
2022-11-14T17:41:50.768Z,7.30
2022-11-14T17:44:17.501Z,7.20
2022-11-14T17:46:44.198Z,7.20
2022-11-14T17:49:10.901Z,7.20
2022-11-14T17:51:37.541Z,7.10
2022-11-14T17:54:04.150Z,7.00
2022-11-14T17:56:30.710Z,6.90
2022-11-14T17:58:57.203Z,6.90
2022-11-14T18:01:24.455Z,6.80
2022-11-14T18:03:51.060Z,6.80
2022-11-14T18:06:21.339Z,6.80
2022-11-14T18:08:48.133Z,6.80
2022-11-14T18:11:15.699Z,6.80
2022-11-14T18:13:42.624Z,6.80
2022-11-14T18:16:11.963Z,6.80
2022-11-14T18:18:39.027Z,6.80
2022-11-14T18:21:06.666Z,6.80
2022-11-14T18:23:33.336Z,6.70
2022-11-14T18:25:59.867Z,6.70
2022-11-14T18:28:26.484Z,6.60
2022-11-14T18:30:55.416Z,6.60
2022-11-14T18:33:22.606Z,6.70
2022-11-14T18:35:55.833Z,6.60
2022-11-14T18:38:22.396Z,6.50
2022-11-14T18:40:51.768Z,6.50
2022-11-14T18:43:22.548Z,6.40
2022-11-14T18:45:49.156Z,6.40
2022-11-14T18:48:15.838Z,6.30
2022-11-14T18:50:42.385Z,6.30
2022-11-14T18:53:09.298Z,6.30
2022-11-14T18:55:40.151Z,6.40
2022-11-14T18:58:06.993Z,6.40
2022-11-14T19:00:33.569Z,6.40
2022-11-14T19:03:03.549Z,6.30
2022-11-14T19:05:35.272Z,6.30
2022-11-14T19:08:01.991Z,6.30
2022-11-14T19:10:28.503Z,6.20
2022-11-14T19:12:55.234Z,6.20
2022-11-14T19:15:21.762Z,6.20
2022-11-14T19:17:48.584Z,6.20
2022-11-14T19:20:15.263Z,6.10
2022-11-14T19:22:41.779Z,6.10
2022-11-14T19:25:09.137Z,6.10
2022-11-14T19:27:35.870Z,6.00
2022-11-14T19:30:02.499Z,6.00
2022-11-14T19:32:29.051Z,6.10
2022-11-14T19:34:55.810Z,6.20
2022-11-14T19:37:22.341Z,6.30
2022-11-14T19:39:52.364Z,6.30
2022-11-14T19:42:18.941Z,6.30
2022-11-14T19:44:45.500Z,6.30
2022-11-14T19:47:12.054Z,6.30
2022-11-14T19:49:38.672Z,6.40
2022-11-14T19:52:05.298Z,6.40
2022-11-14T19:54:31.872Z,6.30
2022-11-14T19:56:58.384Z,6.30
2022-11-14T19:59:27.827Z,6.30
2022-11-14T20:01:55.604Z,6.20
2022-11-14T20:04:22.438Z,6.20
2022-11-14T20:06:49.028Z,6.20
2022-11-14T20:09:16.427Z,6.10
2022-11-14T20:11:43.050Z,6.20
2022-11-14T20:14:10.643Z,6.20
2022-11-14T20:16:37.474Z,6.20
2022-11-14T20:19:04.031Z,6.10
2022-11-14T20:21:31.508Z,6.10
2022-11-14T20:23:58.131Z,6.10
2022-11-14T20:26:24.698Z,6.20
2022-11-14T20:28:52.901Z,6.20
2022-11-14T20:31:21.946Z,6.10
2022-11-14T20:33:49.142Z,6.10
2022-11-14T20:36:16.994Z,6.00
2022-11-14T20:38:44.570Z,6.20
2022-11-14T20:41:12.423Z,6.00
2022-11-14T20:43:39.103Z,6.10
2022-11-14T20:46:13.953Z,6.00
2022-11-14T20:48:41.352Z,6.00
2022-11-14T20:51:11.275Z,5.90
2022-11-14T20:53:37.807Z,5.90
2022-11-14T20:56:04.746Z,5.90
2022-11-14T20:58:31.817Z,5.80
2022-11-14T21:00:58.742Z,5.80
2022-11-14T21:03:25.248Z,5.70
2022-11-14T21:05:51.957Z,5.80
2022-11-14T21:08:18.772Z,5.80
2022-11-14T21:10:46.457Z,6.00
2022-11-14T21:13:32.869Z,5.90
2022-11-14T21:16:00.240Z,5.90
2022-11-14T21:18:27.091Z,5.90
2022-11-14T21:21:03.937Z,5.90
2022-11-14T21:23:30.696Z,5.90
2022-11-14T21:26:00.847Z,5.80
2022-11-14T21:28:28.290Z,5.80
2022-11-14T21:30:55.015Z,5.80
2022-11-14T21:33:21.590Z,5.80
2022-11-14T21:35:48.128Z,5.70
2022-11-14T21:38:14.634Z,5.60
2022-11-14T21:40:41.332Z,5.60
2022-11-14T21:43:07.839Z,5.60
2022-11-14T21:45:34.471Z,5.50
2022-11-14T21:48:00.980Z,5.50
2022-11-14T21:50:27.658Z,5.50
2022-11-14T21:52:54.229Z,5.50
2022-11-14T21:55:20.758Z,5.50
2022-11-14T21:57:47.405Z,5.50
2022-11-14T22:00:14.110Z,5.50
2022-11-14T22:02:59.620Z,5.60
2022-11-14T22:05:26.175Z,5.50
2022-11-14T22:07:52.739Z,5.50
2022-11-14T22:10:19.260Z,5.50
2022-11-14T22:12:45.822Z,5.50
2022-11-14T22:15:12.492Z,5.60
2022-11-14T22:17:39.101Z,5.70
2022-11-14T22:20:05.937Z,5.60
2022-11-14T22:22:33.023Z,5.60
2022-11-14T22:24:59.594Z,5.50
2022-11-14T22:27:26.148Z,5.40
2022-11-14T22:29:54.459Z,5.30
2022-11-14T22:32:21.015Z,5.30
2022-11-14T22:34:47.538Z,5.30
2022-11-14T22:37:14.057Z,5.20
2022-11-14T22:39:40.582Z,5.20
2022-11-14T22:42:09.038Z,5.20
2022-11-14T22:44:35.767Z,5.20
2022-11-14T22:47:02.380Z,5.10
2022-11-14T22:49:28.896Z,5.10
2022-11-14T22:51:55.440Z,5.10
2022-11-14T22:54:21.968Z,5.00
2022-11-14T22:56:48.794Z,5.00
2022-11-14T22:59:15.362Z,5.00
2022-11-14T23:01:41.913Z,4.90
2022-11-14T23:06:59.019Z,5.00
2022-11-14T23:09:27.084Z,4.90
2022-11-14T23:11:53.588Z,4.90
2022-11-14T23:14:20.191Z,4.90
2022-11-14T23:16:46.720Z,4.80
2022-11-14T23:19:13.289Z,4.80
2022-11-14T23:21:39.805Z,4.80
2022-11-14T23:24:08.619Z,4.80
2022-11-14T23:26:35.176Z,4.80
2022-11-14T23:29:02.173Z,4.70
2022-11-14T23:31:28.726Z,4.80
2022-11-14T23:33:55.695Z,4.80
2022-11-14T23:36:22.392Z,4.80
2022-11-14T23:38:51.296Z,4.80
2022-11-14T23:41:22.215Z,4.80
2022-11-14T23:43:48.752Z,4.80
2022-11-14T23:46:15.321Z,4.80
2022-11-14T23:48:41.956Z,4.70
2022-11-14T23:51:09.735Z,4.70
2022-11-14T23:53:36.353Z,4.70
2022-11-14T23:56:03.231Z,4.70
2022-11-14T23:58:29.976Z,4.70
